Terminal Aerodrome Forecast
Issued by NWS Sterling, VA

Current Version | Previous Version | Graphics & Text | Print | Product List | Glossary On
Versions: 1 2 3 4 5 6 7 8 9 10 11 12 13 14 15 16 17
000
FTUS41 KLWX 191100
TAFMRB
TAF
KMRB 191138Z 1912/2012 VRB03KT P6SM SCT050
     FM191800 12005KT P6SM BKN050
     FM200100 VRB03KT P6SM FEW050 SCT130
     FM200600 VRB03KT 5SM BR FEW050 SCT130=

USA.gov is the U.S. government's official web portal to all federal, state and local government web resources and services.